createdAt,value
2019-05-02T00:00:23.221Z,976.07
2019-05-02T00:01:23.250Z,976.06
2019-05-02T00:02:23.943Z,976.08
2019-05-02T00:03:24.211Z,976.08
2019-05-02T00:04:23.182Z,976.03
2019-05-02T00:05:27.385Z,976.01
2019-05-02T00:06:24.142Z,976.04
2019-05-02T00:07:24.194Z,976.05
2019-05-02T00:08:23.113Z,976.03
2019-05-02T00:09:24.164Z,976.03
2019-05-02T00:10:24.983Z,976.02
2019-05-02T00:11:23.135Z,976.03
2019-05-02T00:12:23.075Z,976.00
2019-05-02T00:13:23.056Z,975.97
2019-05-02T00:14:23.086Z,975.99
2019-05-02T00:15:23.097Z,975.95
2019-05-02T00:16:23.028Z,975.96
2019-05-02T00:17:25.660Z,975.98
2019-05-02T00:18:23.008Z,975.98
2019-05-02T00:19:23.080Z,975.99
2019-05-02T00:20:25.991Z,976.01
2019-05-02T00:21:23.019Z,976.00
2019-05-02T00:22:22.964Z,975.94
2019-05-02T00:23:27.787Z,975.95
2019-05-02T00:24:23.937Z,975.89
2019-05-02T00:25:23.032Z,975.92
2019-05-02T00:26:24.643Z,975.91
2019-05-02T00:27:22.924Z,975.89
2019-05-02T00:28:22.884Z,975.86
2019-05-02T00:29:23.742Z,975.89
2019-05-02T00:30:22.874Z,975.92
2019-05-02T00:31:22.895Z,975.89
2019-05-02T00:32:23.669Z,975.82
2019-05-02T00:33:22.937Z,975.88
2019-05-02T00:34:22.831Z,975.82
2019-05-02T00:35:22.906Z,975.85
2019-05-02T00:36:22.809Z,975.81
2019-05-02T00:37:24.577Z,975.77
2019-05-02T00:38:22.770Z,975.75
2019-05-02T00:39:23.859Z,975.79
2019-05-02T00:40:25.880Z,975.76
2019-05-02T00:41:22.780Z,975.78
2019-05-02T00:42:24.051Z,975.75
2019-05-02T00:43:23.731Z,975.73
2019-05-02T00:44:22.701Z,975.75
2019-05-02T00:45:24.073Z,975.71
2019-05-02T00:46:22.713Z,975.71
2019-05-02T00:47:22.663Z,975.67
2019-05-02T00:48:24.421Z,975.67
2019-05-02T00:49:22.643Z,975.65
2019-05-02T00:50:22.724Z,975.67
2019-05-02T00:51:26.764Z,975.67
2019-05-02T00:52:23.651Z,975.64
2019-05-02T00:53:22.595Z,975.63
2019-05-02T00:54:24.204Z,975.61
2019-05-02T00:55:22.607Z,975.58
2019-05-02T00:56:22.569Z,975.57
2019-05-02T00:57:22.670Z,975.60
2019-05-02T00:58:22.548Z,975.52
2019-05-02T00:59:22.599Z,975.53
2019-05-02T01:00:22.518Z,975.52
2019-05-02T01:01:24.322Z,975.53
2019-05-02T01:02:23.510Z,975.52
2019-05-02T01:03:22.581Z,975.49
2019-05-02T01:04:23.257Z,975.49
2019-05-02T01:05:22.514Z,975.48
2019-05-02T01:06:22.482Z,975.48
2019-05-02T01:07:25.493Z,975.41
2019-05-02T01:08:23.193Z,975.43
2019-05-02T01:09:22.486Z,975.47
2019-05-02T01:10:22.495Z,975.44
2019-05-02T01:11:22.454Z,975.40
2019-05-02T01:12:26.524Z,975.45
2019-05-02T01:13:23.475Z,975.36
2019-05-02T01:14:22.377Z,975.39
2019-05-02T01:15:23.408Z,975.37
2019-05-02T01:16:22.357Z,975.34
2019-05-02T01:17:26.018Z,975.35
2019-05-02T01:18:23.322Z,975.30
2019-05-02T01:19:22.358Z,975.35
2019-05-02T01:20:27.362Z,975.33
2019-05-02T01:21:23.371Z,975.31
2019-05-02T01:22:22.271Z,975.30
2019-05-02T01:23:23.044Z,975.34
2019-05-02T01:24:22.300Z,975.29
2019-05-02T01:25:22.242Z,975.31
2019-05-02T01:26:24.212Z,975.35
2019-05-02T01:27:23.212Z,975.31
2019-05-02T01:28:22.213Z,975.31
2019-05-02T01:29:24.781Z,975.30
2019-05-02T01:30:23.174Z,975.26
2019-05-02T01:31:22.224Z,975.24
2019-05-02T01:32:25.142Z,975.25
2019-05-02T01:33:23.165Z,975.30
2019-05-02T01:34:22.135Z,975.32
2019-05-02T01:35:22.147Z,975.30
2019-05-02T01:36:22.138Z,975.31
2019-05-02T01:37:22.179Z,975.28
2019-05-02T01:38:26.196Z,975.25
2019-05-02T01:39:23.078Z,975.26
2019-05-02T01:40:23.119Z,975.27
2019-05-02T01:41:24.026Z,975.29
2019-05-02T01:42:24.072Z,975.29
2019-05-02T01:43:23.972Z,975.26
2019-05-02T01:44:22.030Z,975.22
2019-05-02T01:45:22.014Z,975.21
2019-05-02T01:46:24.008Z,975.21
2019-05-02T01:47:21.993Z,975.22
2019-05-02T01:48:22.033Z,975.17
2019-05-02T01:49:23.162Z,975.14
2019-05-02T01:50:22.073Z,975.16
2019-05-02T01:51:21.967Z,975.13
2019-05-02T01:52:23.696Z,975.16
2019-05-02T01:53:21.914Z,975.14
2019-05-02T01:54:22.966Z,975.16
2019-05-02T01:55:22.376Z,975.14
2019-05-02T01:56:21.916Z,975.12
2019-05-02T01:57:21.883Z,975.08
2019-05-02T01:58:22.906Z,975.13
2019-05-02T01:59:21.863Z,975.07
2019-05-02T02:00:21.838Z,975.08
2019-05-02T02:01:23.378Z,975.08
2019-05-02T02:02:21.832Z,975.05
2019-05-02T02:03:21.849Z,975.04
2019-05-02T02:04:22.310Z,975.06
2019-05-02T02:05:21.791Z,975.07
2019-05-02T02:06:21.781Z,975.05
2019-05-02T02:07:22.792Z,975.02
2019-05-02T02:08:21.754Z,975.04
2019-05-02T02:09:21.763Z,974.98
2019-05-02T02:10:21.724Z,974.98
2019-05-02T02:11:21.713Z,975.02
2019-05-02T02:12:21.814Z,975.03
2019-05-02T02:13:21.707Z,974.98
2019-05-02T02:14:21.795Z,974.97
2019-05-02T02:15:25.167Z,974.97
2019-05-02T02:16:22.666Z,974.96
2019-05-02T02:17:21.676Z,974.97
2019-05-02T02:18:22.261Z,974.94
2019-05-02T02:19:22.627Z,974.97
2019-05-02T02:20:21.717Z,974.93
2019-05-02T02:21:25.615Z,974.92
2019-05-02T02:22:22.708Z,974.92
2019-05-02T02:23:21.590Z,974.91
2019-05-02T02:24:25.087Z,974.88
2019-05-02T02:25:21.573Z,974.90
2019-05-02T02:26:21.614Z,974.91
2019-05-02T02:27:24.550Z,974.89
2019-05-02T02:28:21.542Z,974.92
2019-05-02T02:29:21.622Z,974.88
2019-05-02T02:30:24.605Z,974.85
2019-05-02T02:31:21.570Z,974.85
2019-05-02T02:32:27.154Z,974.84
2019-05-02T02:33:22.475Z,974.86
2019-05-02T02:34:29.413Z,974.82
2019-05-02T02:35:22.467Z,974.81
2019-05-02T02:36:32.071Z,974.83
2019-05-02T02:37:22.442Z,974.91
2019-05-02T02:38:26.932Z,974.85
2019-05-02T02:39:22.418Z,974.86
2019-05-02T02:40:21.471Z,974.88
2019-05-02T02:41:21.394Z,974.86
2019-05-02T02:42:24.983Z,974.87
2019-05-02T02:43:33.476Z,974.88
2019-05-02T02:44:22.352Z,974.87
2019-05-02T02:45:21.410Z,974.83
2019-05-02T02:46:21.341Z,974.93
2019-05-02T02:47:22.422Z,974.89
2019-05-02T02:48:21.305Z,974.89
2019-05-02T02:49:24.501Z,974.88
2019-05-02T02:50:21.293Z,974.89
2019-05-02T02:51:24.542Z,974.90
2019-05-02T02:52:21.276Z,974.87
2019-05-02T02:53:24.248Z,974.88
2019-05-02T02:54:21.247Z,974.89
2019-05-02T02:55:24.518Z,974.85
2019-05-02T02:56:21.224Z,974.82
2019-05-02T02:57:26.511Z,974.82
2019-05-02T02:58:22.212Z,974.81
2019-05-02T02:59:26.366Z,974.77
2019-05-02T03:00:22.169Z,974.76
2019-05-02T03:01:29.075Z,974.73
2019-05-02T03:02:22.180Z,974.73
2019-05-02T03:03:28.029Z,974.76
2019-05-02T03:04:22.229Z,974.75
2019-05-02T03:05:25.950Z,974.74
2019-05-02T03:06:22.161Z,974.71
2019-05-02T03:07:26.229Z,974.71
2019-05-02T03:08:23.123Z,974.69
2019-05-02T03:09:26.591Z,974.66
2019-05-02T03:10:22.132Z,974.69
2019-05-02T03:11:23.831Z,974.67
2019-05-02T03:12:21.108Z,974.67
2019-05-02T03:13:22.025Z,974.69
2019-05-02T03:14:21.086Z,974.70
2019-05-02T03:15:28.004Z,974.68
2019-05-02T03:16:22.005Z,974.67
2019-05-02T03:17:26.404Z,974.71
2019-05-02T03:18:21.987Z,974.70
2019-05-02T03:19:23.371Z,974.71
2019-05-02T03:20:22.016Z,974.72
2019-05-02T03:21:22.613Z,974.75
2019-05-02T03:22:21.034Z,974.75
2019-05-02T03:23:22.350Z,974.76
2019-05-02T03:24:20.972Z,974.77
2019-05-02T03:25:25.111Z,974.79
2019-05-02T03:26:21.891Z,974.82
2019-05-02T03:27:20.974Z,974.84
2019-05-02T03:28:21.124Z,974.79
2019-05-02T03:29:20.905Z,974.83
2019-05-02T03:30:32.464Z,974.81
2019-05-02T03:31:25.437Z,974.84
2019-05-02T03:32:33.621Z,974.82
2019-05-02T03:33:21.823Z,974.81
2019-05-02T03:34:20.844Z,974.78
2019-05-02T03:35:39.650Z,974.80
2019-05-02T03:36:30.110Z,974.80
2019-05-02T03:37:21.756Z,974.83
2019-05-02T03:38:31.694Z,974.78
2019-05-02T03:39:21.749Z,974.80
2019-05-02T03:40:20.751Z,974.82
2019-05-02T03:41:23.292Z,974.77
2019-05-02T03:42:20.718Z,974.79
2019-05-02T03:43:25.568Z,974.78
2019-05-02T03:44:26.101Z,974.74
2019-05-02T03:45:20.690Z,974.75
2019-05-02T03:46:22.707Z,974.80
2019-05-02T03:47:20.649Z,974.79
2019-05-02T03:48:25.667Z,974.76
2019-05-02T03:49:21.626Z,974.80
2019-05-02T03:50:31.161Z,974.82
2019-05-02T03:51:25.025Z,974.84
2019-05-02T03:52:20.592Z,974.82
2019-05-02T03:53:24.947Z,974.82
2019-05-02T03:54:21.637Z,974.79
2019-05-02T03:55:23.929Z,974.75
2019-05-02T03:56:21.546Z,974.82
2019-05-02T03:57:32.244Z,974.85
2019-05-02T03:58:21.554Z,974.79
2019-05-02T03:59:20.534Z,974.80
2019-05-02T04:00:23.765Z,974.81
2019-05-02T04:01:20.587Z,974.83
2019-05-02T04:02:21.784Z,974.85
2019-05-02T04:03:20.476Z,974.85
2019-05-02T04:04:21.055Z,974.79
2019-05-02T04:05:21.482Z,974.81
2019-05-02T04:06:23.361Z,974.82
2019-05-02T04:07:20.489Z,974.74
2019-05-02T04:08:22.554Z,974.77
2019-05-02T04:09:20.411Z,974.80
2019-05-02T04:10:21.465Z,974.81
2019-05-02T04:11:20.383Z,974.78
2019-05-02T04:12:21.840Z,974.75
2019-05-02T04:13:20.375Z,974.82
2019-05-02T04:14:36.774Z,974.80
2019-05-02T04:15:21.333Z,974.85
2019-05-02T04:16:20.402Z,974.80
2019-05-02T04:17:20.304Z,974.83
2019-05-02T04:18:21.404Z,974.84
2019-05-02T04:19:20.285Z,974.82
2019-05-02T04:20:20.376Z,974.83
2019-05-02T04:21:24.467Z,974.87
2019-05-02T04:22:21.327Z,974.87
2019-05-02T04:23:21.316Z,974.83
2019-05-02T04:24:21.238Z,974.87
2019-05-02T04:25:20.229Z,974.85
2019-05-02T04:26:20.278Z,974.81
2019-05-02T04:27:20.212Z,974.86
2019-05-02T04:28:20.279Z,974.85
2019-05-02T04:29:24.499Z,974.83
2019-05-02T04:30:21.160Z,974.88
2019-05-02T04:31:24.862Z,974.84
2019-05-02T04:32:21.140Z,974.78
2019-05-02T04:33:20.150Z,974.85
2019-05-02T04:34:20.141Z,974.88
2019-05-02T04:35:20.111Z,974.83
2019-05-02T04:36:20.165Z,974.87
2019-05-02T04:37:20.089Z,974.88
2019-05-02T04:38:30.845Z,974.85
2019-05-02T04:39:21.731Z,974.83
2019-05-02T04:40:20.043Z,974.82
2019-05-02T04:41:28.664Z,974.85
2019-05-02T04:42:23.172Z,974.83
2019-05-02T04:43:20.035Z,974.82
2019-05-02T04:44:20.020Z,974.85
2019-05-02T04:45:26.436Z,974.82
2019-05-02T04:46:27.166Z,974.84
2019-05-02T04:47:22.165Z,974.84
2019-05-02T04:48:20.078Z,974.86
2019-05-02T04:49:28.615Z,974.82
2019-05-02T04:50:25.267Z,974.81
2019-05-02T04:51:20.601Z,974.91
2019-05-02T04:52:21.122Z,974.82
2019-05-02T04:53:25.931Z,974.84
2019-05-02T04:54:26.294Z,974.84
2019-05-02T04:55:28.311Z,974.87
2019-05-02T04:56:20.874Z,974.84
2019-05-02T04:57:19.894Z,974.83
2019-05-02T04:58:27.553Z,974.86
2019-05-02T04:59:23.023Z,974.85
2019-05-02T05:00:19.894Z,974.87
2019-05-02T05:01:21.367Z,974.85
2019-05-02T05:02:23.020Z,974.91
2019-05-02T05:03:21.191Z,974.89
2019-05-02T05:04:19.816Z,974.88
2019-05-02T05:05:25.435Z,974.90
2019-05-02T05:06:20.817Z,974.87
2019-05-02T05:07:19.741Z,974.88
2019-05-02T05:08:26.646Z,974.91
2019-05-02T05:09:20.731Z,974.90
2019-05-02T05:10:20.790Z,974.91
2019-05-02T05:11:24.651Z,974.90
2019-05-02T05:12:20.693Z,974.95
2019-05-02T05:13:22.933Z,974.89
2019-05-02T05:14:19.779Z,974.91
2019-05-02T05:15:36.259Z,974.91
2019-05-02T05:16:20.643Z,974.88
2019-05-02T05:17:20.098Z,974.87
2019-05-02T05:18:19.612Z,974.89
2019-05-02T05:19:23.049Z,974.87
2019-05-02T05:20:20.603Z,974.90
2019-05-02T05:21:24.657Z,974.87
2019-05-02T05:22:20.564Z,974.90
2019-05-02T05:23:21.538Z,974.92
2019-05-02T05:24:19.559Z,974.94
2019-05-02T05:25:21.432Z,974.93
2019-05-02T05:26:19.528Z,974.98
2019-05-02T05:27:22.738Z,974.94
2019-05-02T05:28:20.060Z,975.00
2019-05-02T05:29:23.291Z,974.96
2019-05-02T05:30:19.488Z,974.96
2019-05-02T05:31:24.089Z,975.00
2019-05-02T05:32:20.450Z,974.95
2019-05-02T05:33:19.528Z,974.89
2019-05-02T05:34:22.731Z,974.93
2019-05-02T05:35:20.430Z,974.86
2019-05-02T05:36:20.039Z,974.88
2019-05-02T05:37:20.392Z,974.89
2019-05-02T05:38:22.956Z,974.90
2019-05-02T05:39:20.407Z,974.91
2019-05-02T05:40:22.534Z,974.88
2019-05-02T05:41:23.155Z,974.90
2019-05-02T05:42:23.455Z,974.85
2019-05-02T05:43:20.657Z,974.87
2019-05-02T05:44:23.199Z,974.86
2019-05-02T05:45:20.317Z,974.89
2019-05-02T05:46:19.325Z,974.79
2019-05-02T05:47:21.345Z,974.82
2019-05-02T05:48:19.355Z,974.76
2019-05-02T05:49:21.770Z,974.74
2019-05-02T05:50:19.259Z,974.76
2019-05-02T05:51:20.747Z,974.74
2019-05-02T05:52:19.330Z,974.71
2019-05-02T05:53:21.411Z,974.72
2019-05-02T05:54:20.328Z,974.72
2019-05-02T05:55:24.056Z,974.70
2019-05-02T05:56:20.185Z,974.67
2019-05-02T05:57:21.112Z,974.67
2019-05-02T05:58:19.161Z,974.63
2019-05-02T05:59:22.304Z,974.64
2019-05-02T06:00:22.975Z,974.61
2019-05-02T06:01:34.419Z,974.60
2019-05-02T06:02:20.112Z,974.60
2019-05-02T06:06:23.210Z,974.63
2019-05-02T06:07:11.774Z,974.58
2019-05-02T06:08:13.851Z,974.59
2019-05-02T06:09:13.963Z,974.59
2019-05-02T06:10:19.780Z,974.56
2019-05-02T06:11:14.823Z,974.57
2019-05-02T06:12:17.769Z,974.57
2019-05-02T06:13:12.927Z,974.53
2019-05-02T06:14:15.278Z,974.51
2019-05-02T06:15:11.700Z,974.47
2019-05-02T06:16:15.067Z,974.47
2019-05-02T06:17:11.665Z,974.44
2019-05-02T06:20:35.860Z,974.49
2019-05-02T06:21:27.901Z,974.47
2019-05-02T06:22:27.902Z,974.41
2019-05-02T06:23:31.009Z,974.42
2019-05-02T06:24:28.884Z,974.46
2019-05-02T06:25:34.355Z,974.45
2019-05-02T06:26:28.855Z,974.41
2019-05-02T06:27:30.460Z,974.46
2019-05-02T06:28:27.824Z,974.42
2019-05-02T06:29:29.945Z,974.44
2019-05-02T06:30:31.046Z,974.47
2019-05-02T06:31:27.889Z,974.44
2019-05-02T06:32:27.776Z,974.40
2019-05-02T06:33:30.526Z,974.41
2019-05-02T06:34:27.808Z,974.33
2019-05-02T06:35:27.759Z,974.35
2019-05-02T06:36:32.107Z,974.30
2019-05-02T06:37:28.729Z,974.30
2019-05-02T06:38:27.722Z,974.28
2019-05-02T06:39:31.975Z,974.28
2019-05-02T06:40:27.777Z,974.26
2019-05-02T06:41:27.782Z,974.25
2019-05-02T06:42:32.182Z,974.23
2019-05-02T06:43:27.662Z,974.24
2019-05-02T06:44:27.655Z,974.28
2019-05-02T06:45:31.865Z,974.21
2019-05-02T06:46:29.569Z,974.20
2019-05-02T06:47:27.684Z,974.19
2019-05-02T06:48:27.617Z,974.17
2019-05-02T06:49:27.617Z,974.16
2019-05-02T06:50:27.613Z,974.13
2019-05-02T06:51:28.677Z,974.19
2019-05-02T06:52:32.758Z,974.15
2019-05-02T06:53:28.608Z,974.09
2019-05-02T06:54:27.538Z,974.13
2019-05-02T06:55:28.162Z,974.05
2019-05-02T06:56:28.530Z,974.06
2019-05-02T06:57:27.560Z,974.10
2019-05-02T06:58:27.496Z,974.05
2019-05-02T06:59:27.492Z,973.95
2019-05-02T07:00:35.588Z,973.97
2019-05-02T07:01:28.464Z,973.95
2019-05-02T07:02:28.266Z,973.93
2019-05-02T07:03:28.455Z,973.92
2019-05-02T07:04:27.429Z,973.92
2019-05-02T07:05:28.265Z,973.94
2019-05-02T07:06:27.844Z,973.91
2019-05-02T07:07:31.297Z,973.90
2019-05-02T07:08:28.463Z,973.91
2019-05-02T07:09:39.980Z,973.86
2019-05-02T07:10:30.927Z,973.91
2019-05-02T07:11:28.347Z,973.94
2019-05-02T07:12:27.388Z,973.92
2019-05-02T07:13:27.330Z,973.92
2019-05-02T07:14:27.434Z,973.86
2019-05-02T07:15:27.514Z,973.86
2019-05-02T07:16:37.579Z,973.84
2019-05-02T07:17:32.230Z,973.87
2019-05-02T07:18:28.325Z,973.85
2019-05-02T07:19:29.257Z,973.84
2019-05-02T07:20:27.383Z,973.83
2019-05-02T07:21:27.255Z,973.79
2019-05-02T07:22:28.293Z,973.73
2019-05-02T07:23:27.227Z,973.79
2019-05-02T07:24:30.801Z,973.75
2019-05-02T07:25:27.217Z,973.71
2019-05-02T07:26:27.187Z,973.72
2019-05-02T07:27:28.308Z,973.72
2019-05-02T07:28:28.158Z,973.68
2019-05-02T07:29:27.248Z,973.67
2019-05-02T07:30:30.069Z,973.70
2019-05-02T07:31:28.130Z,973.69
2019-05-02T07:32:27.140Z,973.64
2019-05-02T07:33:27.220Z,973.69
2019-05-02T07:34:27.091Z,973.65
2019-05-02T07:35:27.162Z,973.69
2019-05-02T07:36:31.124Z,973.62
2019-05-02T07:37:28.064Z,973.61
2019-05-02T07:38:27.597Z,973.66
2019-05-02T07:39:27.046Z,973.69
2019-05-02T07:40:28.115Z,973.62
2019-05-02T07:41:29.065Z,973.60
2019-05-02T07:42:27.016Z,973.53
2019-05-02T07:43:26.996Z,973.53
2019-05-02T07:44:32.064Z,973.55
2019-05-02T07:45:27.967Z,973.54
2019-05-02T07:46:26.988Z,973.57
2019-05-02T07:47:28.758Z,973.54
2019-05-02T07:48:26.941Z,973.53
2019-05-02T07:49:32.277Z,973.48
2019-05-02T07:50:27.921Z,973.47
2019-05-02T07:51:26.922Z,973.43
2019-05-02T07:52:28.848Z,973.47
2019-05-02T07:53:26.884Z,973.43
2019-05-02T07:54:26.953Z,973.41
2019-05-02T07:55:26.856Z,973.41
2019-05-02T07:56:26.936Z,973.41
2019-05-02T07:57:30.558Z,973.43
2019-05-02T07:58:27.811Z,973.39
2019-05-02T07:59:26.808Z,973.39
2019-05-02T08:00:26.867Z,973.46
2019-05-02T08:01:26.818Z,973.39
2019-05-02T08:02:26.798Z,973.35
2019-05-02T08:03:29.333Z,973.38
2019-05-02T08:04:27.759Z,973.33
2019-05-02T08:05:26.800Z,973.33
2019-05-02T08:06:35.014Z,973.31
2019-05-02T08:07:34.257Z,973.28
2019-05-02T08:08:29.934Z,973.30
2019-05-02T08:09:26.712Z,973.32
2019-05-02T08:10:26.686Z,973.30
2019-05-02T08:11:32.305Z,973.32
2019-05-02T08:12:27.686Z,973.25
2019-05-02T08:13:26.767Z,973.23
2019-05-02T08:14:29.182Z,973.22
2019-05-02T08:15:27.647Z,973.25
2019-05-02T08:16:27.429Z,973.21
2019-05-02T08:17:26.627Z,973.18
2019-05-02T08:18:30.440Z,973.24
2019-05-02T08:19:26.593Z,973.26
2019-05-02T08:20:26.580Z,973.20
2019-05-02T08:21:27.299Z,973.20
2019-05-02T08:22:28.652Z,973.17
2019-05-02T08:23:27.890Z,973.21
2019-05-02T08:24:26.602Z,973.19
2019-05-02T08:25:26.533Z,973.19
2019-05-02T08:26:26.524Z,973.16
2019-05-02T08:27:29.343Z,973.23
2019-05-02T08:28:27.494Z,973.19
2019-05-02T08:29:28.857Z,973.18
2019-05-02T08:30:26.456Z,973.15
2019-05-02T08:31:26.444Z,973.19
2019-05-02T08:32:26.467Z,973.16
2019-05-02T08:33:29.423Z,973.20
2019-05-02T08:34:27.449Z,973.15
2019-05-02T08:35:28.312Z,973.18
2019-05-02T08:36:26.410Z,973.20
2019-05-02T08:37:26.431Z,973.16
2019-05-02T08:38:26.390Z,973.14
2019-05-02T08:39:33.244Z,973.17
2019-05-02T08:40:27.378Z,973.17
2019-05-02T08:41:27.216Z,973.12
2019-05-02T08:42:27.684Z,973.15
2019-05-02T08:43:27.337Z,973.19
2019-05-02T08:44:28.408Z,973.18
2019-05-02T08:45:26.296Z,973.18
2019-05-02T08:46:26.411Z,973.17
2019-05-02T08:47:28.629Z,973.10
2019-05-02T08:48:26.267Z,973.14
2019-05-02T08:49:26.311Z,973.10
2019-05-02T08:50:27.107Z,973.09
2019-05-02T08:51:27.250Z,973.09
2019-05-02T08:52:26.251Z,973.10
2019-05-02T08:53:26.222Z,973.08
2019-05-02T08:54:27.944Z,973.05
2019-05-02T08:55:29.917Z,973.07
2019-05-02T08:56:26.182Z,973.09
2019-05-02T08:57:30.065Z,973.05
2019-05-02T08:58:27.164Z,973.05
2019-05-02T08:59:26.260Z,973.07
2019-05-02T09:00:26.147Z,973.02
2019-05-02T09:01:34.867Z,973.04
2019-05-02T09:02:27.479Z,973.02
2019-05-02T09:03:27.162Z,973.05
2019-05-02T09:04:29.114Z,972.98
2019-05-02T09:05:26.088Z,972.97
2019-05-02T09:06:26.060Z,972.91
2019-05-02T09:07:26.206Z,972.93
2019-05-02T09:08:26.064Z,972.88
2019-05-02T09:09:28.202Z,972.83
2019-05-02T09:10:26.032Z,972.87
2019-05-02T09:11:26.102Z,972.92
2019-05-02T09:12:26.003Z,972.97
2019-05-02T09:13:29.098Z,972.85
2019-05-02T09:14:25.984Z,972.85
2019-05-02T09:15:28.025Z,972.83
2019-05-02T09:16:28.607Z,972.84
2019-05-02T09:17:35.431Z,972.80
2019-05-02T09:18:35.039Z,972.76
2019-05-02T09:19:26.917Z,972.77
2019-05-02T09:20:25.910Z,972.75
2019-05-02T09:21:32.204Z,972.77
2019-05-02T09:22:26.885Z,972.70
2019-05-02T09:23:27.518Z,972.78
2019-05-02T09:24:26.921Z,972.75
2019-05-02T09:25:25.971Z,972.74
2019-05-02T09:26:34.983Z,972.81
2019-05-02T09:27:26.832Z,972.86
2019-05-02T09:28:26.951Z,972.83
2019-05-02T09:29:25.815Z,972.80
2019-05-02T09:30:26.041Z,972.78
2019-05-02T09:31:25.797Z,972.78
2019-05-02T09:32:26.652Z,972.75
2019-05-02T09:33:25.777Z,972.75
2019-05-02T09:34:26.820Z,972.74
2019-05-02T09:35:25.751Z,972.76
2019-05-02T09:36:25.730Z,972.73
2019-05-02T09:37:25.719Z,972.73
2019-05-02T09:38:25.800Z,972.74
2019-05-02T09:39:27.336Z,972.78
2019-05-02T09:40:35.301Z,972.83
2019-05-02T09:41:26.804Z,972.77
2019-05-02T09:42:33.303Z,972.70
2019-05-02T09:43:29.343Z,972.72
2019-05-02T09:44:26.664Z,972.73
2019-05-02T09:45:27.827Z,972.73
2019-05-02T09:46:26.624Z,972.69
2019-05-02T09:47:27.501Z,972.69
2019-05-02T09:48:26.987Z,972.66
2019-05-02T09:49:25.596Z,972.67
2019-05-02T09:50:31.225Z,972.66
2019-05-02T09:51:26.557Z,972.67
2019-05-02T09:52:25.558Z,972.58
2019-05-02T09:53:25.784Z,972.60
2019-05-02T09:54:25.642Z,972.60
2019-05-02T09:55:25.520Z,972.68
2019-05-02T09:56:25.582Z,972.63
2019-05-02T09:57:25.491Z,972.66
2019-05-02T09:58:25.521Z,972.59
2019-05-02T09:59:30.117Z,972.57
2019-05-02T10:00:26.673Z,972.64
2019-05-02T10:01:26.535Z,972.61
2019-05-02T10:02:25.434Z,972.56
2019-05-02T10:03:25.436Z,972.61
2019-05-02T10:04:25.436Z,972.63
2019-05-02T10:05:25.487Z,972.58
2019-05-02T10:06:25.409Z,972.54
2019-05-02T10:07:25.430Z,972.51
2019-05-02T10:08:25.395Z,972.61
2019-05-02T10:09:27.239Z,972.47
2019-05-02T10:10:25.443Z,972.54
2019-05-02T10:11:26.296Z,972.55
2019-05-02T10:12:25.361Z,972.50
2019-05-02T10:13:25.330Z,972.47
2019-05-02T10:14:25.332Z,972.54
2019-05-02T10:15:25.309Z,972.62
2019-05-02T10:16:27.452Z,972.55
2019-05-02T10:17:25.284Z,972.48
2019-05-02T10:18:30.020Z,972.53
2019-05-02T10:19:26.267Z,972.54
2019-05-02T10:20:31.893Z,972.48
2019-05-02T10:21:26.237Z,972.47
2019-05-02T10:22:30.962Z,972.45
2019-05-02T10:23:26.208Z,972.40
2019-05-02T10:24:25.240Z,972.40
2019-05-02T10:25:25.168Z,972.46
2019-05-02T10:26:25.273Z,972.37
2019-05-02T10:27:25.161Z,972.31
2019-05-02T10:28:26.201Z,972.24
2019-05-02T10:29:28.278Z,972.35
2019-05-02T10:30:25.132Z,972.38
2019-05-02T10:31:27.490Z,972.36
2019-05-02T10:32:26.154Z,972.33
2019-05-02T10:33:27.958Z,972.40
2019-05-02T10:34:27.181Z,972.29
2019-05-02T10:35:28.111Z,972.30
2019-05-02T10:36:26.058Z,972.36
2019-05-02T10:37:30.570Z,972.36
2019-05-02T10:38:26.048Z,972.34
2019-05-02T10:39:28.430Z,972.38
2019-05-02T10:40:26.019Z,972.37
2019-05-02T10:41:25.028Z,972.39
2019-05-02T10:42:25.002Z,972.30
2019-05-02T10:43:26.000Z,972.27
2019-05-02T10:44:27.111Z,972.22
2019-05-02T10:45:26.041Z,972.25
2019-05-02T10:46:27.841Z,972.18
2019-05-02T10:47:25.934Z,972.18
2019-05-02T10:48:28.411Z,972.16
2019-05-02T10:49:24.944Z,972.20
2019-05-02T10:50:24.955Z,972.21
2019-05-02T10:51:26.181Z,972.15
2019-05-02T10:52:29.562Z,972.19
2019-05-02T10:53:25.886Z,972.21
2019-05-02T10:54:28.062Z,972.31
2019-05-02T10:55:33.338Z,972.18
2019-05-02T10:56:24.854Z,972.14
2019-05-02T10:57:24.829Z,972.20
2019-05-02T10:58:31.373Z,972.07
2019-05-02T10:59:25.851Z,972.10
2019-05-02T11:00:26.901Z,972.15
2019-05-02T11:01:24.783Z,972.12
2019-05-02T11:02:24.885Z,972.16
2019-05-02T11:03:24.772Z,972.25
2019-05-02T11:04:29.175Z,972.19
2019-05-02T11:05:26.641Z,972.14
2019-05-02T11:06:24.754Z,972.23
2019-05-02T11:07:26.409Z,972.11
2019-05-02T11:08:24.712Z,972.15
2019-05-02T11:09:26.398Z,972.14
2019-05-02T11:10:24.781Z,972.17
2019-05-02T11:11:24.679Z,972.12
2019-05-02T11:12:30.244Z,972.18
2019-05-02T11:13:25.659Z,972.20
2019-05-02T11:14:24.649Z,972.14
2019-05-02T11:15:26.805Z,972.10
2019-05-02T11:16:25.661Z,972.14
2019-05-02T11:17:24.612Z,972.17
2019-05-02T11:18:40.235Z,972.12
2019-05-02T11:19:25.663Z,972.09
2019-05-02T11:20:24.594Z,972.06
2019-05-02T11:21:25.603Z,972.11
2019-05-02T11:22:24.545Z,972.06
2019-05-02T11:23:25.659Z,972.07
2019-05-02T11:24:24.543Z,972.18
2019-05-02T11:25:24.551Z,972.10
2019-05-02T11:26:25.287Z,972.12
2019-05-02T11:27:24.500Z,972.09
2019-05-02T11:28:24.558Z,972.12
2019-05-02T11:29:24.470Z,972.08
2019-05-02T11:30:26.486Z,972.06
2019-05-02T11:31:26.501Z,972.12
2019-05-02T11:32:24.440Z,972.08
2019-05-02T11:33:24.492Z,972.09
2019-05-02T11:34:24.414Z,972.09
2019-05-02T11:35:24.482Z,972.11
2019-05-02T11:36:27.283Z,972.08
2019-05-02T11:37:25.485Z,972.08
2019-05-02T11:38:40.894Z,972.06
2019-05-02T11:39:34.220Z,972.02
2019-05-02T11:40:25.396Z,972.15
2019-05-02T11:41:24.340Z,972.13
2019-05-02T11:42:27.222Z,972.13
2019-05-02T11:43:24.318Z,972.15
2019-05-02T11:44:24.349Z,972.07
2019-05-02T11:45:24.300Z,972.12
2019-05-02T11:46:24.303Z,972.18
2019-05-02T11:47:26.613Z,972.19
2019-05-02T11:48:24.320Z,972.17
2019-05-02T11:49:24.261Z,972.22
2019-05-02T11:50:26.606Z,972.18
2019-05-02T11:51:25.252Z,972.10
2019-05-02T11:52:27.383Z,972.14
2019-05-02T11:53:29.174Z,972.15
2019-05-02T11:54:24.196Z,972.14
2019-05-02T11:55:28.902Z,972.18
2019-05-02T11:56:24.195Z,972.22
2019-05-02T11:57:28.720Z,972.16
2019-05-02T11:58:25.147Z,972.15
2019-05-02T11:59:28.225Z,972.05
2019-05-02T12:00:25.139Z,972.04
2019-05-02T12:01:35.741Z,972.02
2019-05-02T12:02:25.109Z,972.04
2019-05-02T12:03:28.095Z,972.02
2019-05-02T12:04:25.081Z,972.00
2019-05-02T12:05:26.591Z,972.00
2019-05-02T12:06:25.072Z,971.99
2019-05-02T12:07:24.113Z,971.95
2019-05-02T12:08:24.073Z,971.84
2019-05-02T12:09:24.026Z,971.88
2019-05-02T12:10:27.912Z,971.84
2019-05-02T12:11:24.016Z,971.88
2019-05-02T12:12:27.331Z,971.89
2019-05-02T12:13:24.988Z,971.86
2019-05-02T12:14:27.447Z,971.90
2019-05-02T12:15:24.958Z,971.87
2019-05-02T12:16:24.070Z,971.87
2019-05-02T12:17:23.949Z,972.01
2019-05-02T12:18:23.960Z,971.97
2019-05-02T12:19:23.921Z,971.99
2019-05-02T12:20:24.001Z,971.94
2019-05-02T12:21:23.926Z,971.94
2019-05-02T12:22:23.981Z,971.89
2019-05-02T12:23:23.882Z,971.95
2019-05-02T12:24:23.887Z,971.94
2019-05-02T12:25:23.844Z,971.90
2019-05-02T12:26:23.954Z,971.88
2019-05-02T12:27:23.838Z,971.85
2019-05-02T12:28:23.848Z,971.85
2019-05-02T12:29:23.809Z,971.85
2019-05-02T12:30:23.797Z,971.88
2019-05-02T12:31:23.811Z,971.89
2019-05-02T12:32:24.777Z,971.87
2019-05-02T12:33:23.770Z,971.84